Terminal Aerodrome Forecast
Issued by NWS

Home | Current Version | Previous Version | Text Only | Print | Product List | Glossary On
Versions: 1 2 3 4 5 6 7 8 9 10 11 12 13 14 15 16 17
656
FTUS44 KBMX 301720
TAFTCL
TAF
KTCL 301720Z 3018/3118 19010G20KT P6SM FEW080 SCT100
     FM301900 20013G20KT 6SM RA VCTS BKN030CB
      TEMPO 3100/3102 19013G25KT 3SM TSRA OVC025CB
     FM310600 23002KT P6SM SHRA BKN030
     FM311200 25003KT P6SM SCT050=

USA.gov is the U.S. government's official web portal to all federal, state and local government web resources and services.